sensor_id;sensor_type;location;lat;lon;timestamp;pressure;altitude;pressure_sealevel;temperature;humidity
48848;BME280;75039;51.970;5.660;2023-12-20T00:01:11;101488.47;;;18.94;48.47
48848;BME280;75039;51.970;5.660;2023-12-20T00:03:38;101493.63;;;18.97;48.19
48848;BME280;75039;51.970;5.660;2023-12-20T00:06:09;101482.72;;;18.97;48.33
48848;BME280;75039;51.970;5.660;2023-12-20T00:08:36;101497.19;;;18.98;48.64
48848;BME280;75039;51.970;5.660;2023-12-20T00:11:02;101493.63;;;18.97;48.21
48848;BME280;75039;51.970;5.660;2023-12-20T00:13:29;101485.44;;;18.97;48.24
48848;BME280;75039;51.970;5.660;2023-12-20T00:15:56;101487.31;;;18.97;48.63
48848;BME280;75039;51.970;5.660;2023-12-20T00:18:23;101497.19;;;18.98;48.18
48848;BME280;75039;51.970;5.660;2023-12-20T00:20:49;101502.63;;;18.98;48.31
48848;BME280;75039;51.970;5.660;2023-12-20T00:23:16;101496.19;;;18.99;48.26
48848;BME280;75039;51.970;5.660;2023-12-20T00:25:43;101497.03;;;18.99;48.25
48848;BME280;75039;51.970;5.660;2023-12-20T00:28:10;101502.50;;;18.99;48.32
48848;BME280;75039;51.970;5.660;2023-12-20T00:30:36;101504.50;;;18.97;48.23
48848;BME280;75039;51.970;5.660;2023-12-20T00:33:03;101498.91;;;18.99;48.39
48848;BME280;75039;51.970;5.660;2023-12-20T00:35:30;101494.19;;;19.01;48.30
48848;BME280;75039;51.970;5.660;2023-12-20T00:37:58;101490.59;;;19.00;48.30
48848;BME280;75039;51.970;5.660;2023-12-20T00:40:25;101494.31;;;18.99;48.42
48848;BME280;75039;51.970;5.660;2023-12-20T00:42:51;101488.72;;;19.01;48.42
48848;BME280;75039;51.970;5.660;2023-12-20T00:45:18;101482.44;;;19.00;48.50
48848;BME280;75039;51.970;5.660;2023-12-20T00:47:45;101481.44;;;19.01;48.30
48848;BME280;75039;51.970;5.660;2023-12-20T00:50:12;101472.41;;;19.01;48.18
48848;BME280;75039;51.970;5.660;2023-12-20T00:52:39;101475.13;;;19.01;48.36
48848;BME280;75039;51.970;5.660;2023-12-20T00:55:06;101482.44;;;19.00;48.43
48848;BME280;75039;51.970;5.660;2023-12-20T00:57:34;101473.41;;;19.00;48.32
48848;BME280;75039;51.970;5.660;2023-12-20T01:00:00;101476.84;;;19.02;48.19
48848;BME280;75039;51.970;5.660;2023-12-20T01:02:27;101476.84;;;19.02;48.40
48848;BME280;75039;51.970;5.660;2023-12-20T01:04:53;101483.16;;;19.02;48.25
48848;BME280;75039;51.970;5.660;2023-12-20T01:07:21;101475.84;;;19.03;48.50
48848;BME280;75039;51.970;5.660;2023-12-20T01:09:48;101482.28;;;19.02;48.40
48848;BME280;75039;51.970;5.660;2023-12-20T01:12:15;101480.56;;;19.01;48.11
48848;BME280;75039;51.970;5.660;2023-12-20T01:14:41;101489.59;;;19.01;48.28
48848;BME280;75039;51.970;5.660;2023-12-20T01:17:08;101500.47;;;19.01;48.12
48848;BME280;75039;51.970;5.660;2023-12-20T01:19:36;101502.19;;;19.02;48.43
48848;BME280;75039;51.970;5.660;2023-12-20T01:22:03;101501.34;;;19.02;48.42
48848;BME280;75039;51.970;5.660;2023-12-20T01:24:30;101493.03;;;19.03;48.16
48848;BME280;75039;51.970;5.660;2023-12-20T01:26:56;101495.75;;;19.03;47.91
48848;BME280;75039;51.970;5.660;2023-12-20T01:29:23;101497.63;;;19.03;47.90
48848;BME280;75039;51.970;5.660;2023-12-20T01:31:50;101498.47;;;19.03;48.46
48848;BME280;75039;51.970;5.660;2023-12-20T01:34:17;101501.34;;;19.02;48.27
48848;BME280;75039;51.970;5.660;2023-12-20T01:36:44;101503.19;;;19.01;48.09
48848;BME280;75039;51.970;5.660;2023-12-20T01:39:11;101505.78;;;19.03;48.03
48848;BME280;75039;51.970;5.660;2023-12-20T01:41:50;101508.50;;;19.03;48.28
48848;BME280;75039;51.970;5.660;2023-12-20T01:44:17;101505.63;;;19.04;48.09
48848;BME280;75039;51.970;5.660;2023-12-20T01:46:44;101503.75;;;19.05;48.08
48848;BME280;75039;51.970;5.660;2023-12-20T01:49:11;101494.03;;;19.02;48.28
48848;BME280;75039;51.970;5.660;2023-12-20T01:51:38;101487.56;;;19.03;47.88
48848;BME280;75039;51.970;5.660;2023-12-20T01:54:05;101486.56;;;19.04;47.87
48848;BME280;75039;51.970;5.660;2023-12-20T01:56:32;101479.41;;;19.03;48.01
48848;BME280;75039;51.970;5.660;2023-12-20T01:59:00;101483.84;;;19.04;48.12
48848;BME280;75039;51.970;5.660;2023-12-20T02:01:28;101494.03;;;19.02;48.23
48848;BME280;75039;51.970;5.660;2023-12-20T02:03:55;101494.75;;;19.04;48.23
48848;BME280;75039;51.970;5.660;2023-12-20T02:06:24;101491.00;;;19.05;48.21
48848;BME280;75039;51.970;5.660;2023-12-20T02:08:55;101491.88;;;19.06;48.31
48848;BME280;75039;51.970;5.660;2023-12-20T02:11:23;101487.44;;;19.05;48.10
48848;BME280;75039;51.970;5.660;2023-12-20T02:13:49;101486.72;;;19.03;48.14
48848;BME280;75039;51.970;5.660;2023-12-20T02:16:16;101487.56;;;19.03;48.23
48848;BME280;75039;51.970;5.660;2023-12-20T02:18:43;101490.16;;;19.05;47.99
48848;BME280;75039;51.970;5.660;2023-12-20T02:21:11;101495.59;;;19.05;47.96
48848;BME280;75039;51.970;5.660;2023-12-20T02:23:37;101486.72;;;19.03;48.10
48848;BME280;75039;51.970;5.660;2023-12-20T02:26:04;101494.75;;;19.04;47.78
48848;BME280;75039;51.970;5.660;2023-12-20T02:28:33;101492.00;;;19.04;48.12
48848;BME280;75039;51.970;5.660;2023-12-20T02:31:00;101492.72;;;19.07;48.18
48848;BME280;75039;51.970;5.660;2023-12-20T02:33:27;101497.47;;;19.04;48.06
48848;BME280;75039;51.970;5.660;2023-12-20T02:35:53;101497.47;;;19.04;48.03
48848;BME280;75039;51.970;5.660;2023-12-20T02:38:20;101497.63;;;19.03;47.94
48848;BME280;75039;51.970;5.660;2023-12-20T02:40:47;101503.75;;;19.05;48.06
48848;BME280;75039;51.970;5.660;2023-12-20T02:43:15;101500.19;;;19.04;47.69
48848;BME280;75039;51.970;5.660;2023-12-20T02:45:42;101487.56;;;19.03;48.06
48848;BME280;75039;51.970;5.660;2023-12-20T02:48:09;101493.03;;;19.03;47.85
48848;BME280;75039;51.970;5.660;2023-12-20T02:50:36;101484.84;;;19.03;47.83
48848;BME280;75039;51.970;5.660;2023-12-20T02:53:03;101494.88;;;19.03;47.75
48848;BME280;75039;51.970;5.660;2023-12-20T02:55:29;101492.16;;;19.03;48.14
48848;BME280;75039;51.970;5.660;2023-12-20T02:57:56;101496.44;;;19.05;47.83
48848;BME280;75039;51.970;5.660;2023-12-20T03:00:23;101483.84;;;19.04;48.00
48848;BME280;75039;51.970;5.660;2023-12-20T03:02:49;101484.72;;;19.05;47.55
48848;BME280;75039;51.970;5.660;2023-12-20T03:05:16;101481.13;;;19.04;47.77
48848;BME280;75039;51.970;5.660;2023-12-20T03:07:43;101487.44;;;19.05;47.88
48848;BME280;75039;51.970;5.660;2023-12-20T03:10:10;101489.28;;;19.04;47.75
48848;BME280;75039;51.970;5.660;2023-12-20T03:12:49;101490.00;;;19.07;47.68
48848;BME280;75039;51.970;5.660;2023-12-20T03:15:16;101483.00;;;19.04;48.07
48848;BME280;75039;51.970;5.660;2023-12-20T03:17:43;101476.53;;;19.05;47.70
48848;BME280;75039;51.970;5.660;2023-12-20T03:20:10;101470.25;;;19.04;48.00
48848;BME280;75039;51.970;5.660;2023-12-20T03:22:37;101467.50;;;19.04;47.82
48848;BME280;75039;51.970;5.660;2023-12-20T03:25:04;101466.50;;;19.05;48.00
48848;BME280;75039;51.970;5.660;2023-12-20T03:27:30;101471.97;;;19.05;47.97
48848;BME280;75039;51.970;5.660;2023-12-20T03:29:57;101468.38;;;19.05;47.87
48848;BME280;75039;51.970;5.660;2023-12-20T03:32:24;101463.78;;;19.05;47.89
48848;BME280;75039;51.970;5.660;2023-12-20T03:34:50;101466.50;;;19.05;47.56
48848;BME280;75039;51.970;5.660;2023-12-20T03:37:17;101464.78;;;19.04;47.81
48848;BME280;75039;51.970;5.660;2023-12-20T03:39:44;101461.22;;;19.04;47.54
48848;BME280;75039;51.970;5.660;2023-12-20T03:42:11;101469.22;;;19.05;47.96
48848;BME280;75039;51.970;5.660;2023-12-20T03:44:39;101461.22;;;19.04;47.83
48848;BME280;75039;51.970;5.660;2023-12-20T03:47:06;101461.22;;;19.04;47.69
48848;BME280;75039;51.970;5.660;2023-12-20T03:49:33;101467.50;;;19.04;47.50
48848;BME280;75039;51.970;5.660;2023-12-20T03:52:00;101458.34;;;19.05;47.76
48848;BME280;75039;51.970;5.660;2023-12-20T03:54:27;101460.22;;;19.05;47.75
48848;BME280;75039;51.970;5.660;2023-12-20T03:56:53;101446.59;;;19.05;47.94
48848;BME280;75039;51.970;5.660;2023-12-20T03:59:20;101445.75;;;19.04;47.52
48848;BME280;75039;51.970;5.660;2023-12-20T04:01:47;101450.19;;;19.05;47.60
48848;BME280;75039;51.970;5.660;2023-12-20T04:04:13;101459.19;;;19.06;47.80
48848;BME280;75039;51.970;5.660;2023-12-20T04:06:40;101450.03;;;19.07;47.67
48848;BME280;75039;51.970;5.660;2023-12-20T04:09:07;101452.91;;;19.05;47.69
48848;BME280;75039;51.970;5.660;2023-12-20T04:11:36;101464.78;;;19.04;47.62
48848;BME280;75039;51.970;5.660;2023-12-20T04:14:03;101475.53;;;19.06;47.41
48848;BME280;75039;51.970;5.660;2023-12-20T04:16:31;101475.38;;;19.08;47.61
48848;BME280;75039;51.970;5.660;2023-12-20T04:18:58;101465.50;;;19.07;47.41
48848;BME280;75039;51.970;5.660;2023-12-20T04:21:25;101476.41;;;19.07;47.73
48848;BME280;75039;51.970;5.660;2023-12-20T04:23:51;101472.81;;;19.06;47.48
48848;BME280;75039;51.970;5.660;2023-12-20T04:26:18;101468.38;;;19.05;47.75
48848;BME280;75039;51.970;5.660;2023-12-20T04:28:45;101468.53;;;19.03;47.46
48848;BME280;75039;51.970;5.660;2023-12-20T04:31:11;101465.81;;;19.03;47.75
48848;BME280;75039;51.970;5.660;2023-12-20T04:33:39;101469.38;;;19.04;47.74
48848;BME280;75039;51.970;5.660;2023-12-20T04:36:05;101456.63;;;19.04;47.46
48848;BME280;75039;51.970;5.660;2023-12-20T04:38:32;101461.22;;;19.04;47.55
48848;BME280;75039;51.970;5.660;2023-12-20T04:40:59;101471.25;;;19.03;47.41
48848;BME280;75039;51.970;5.660;2023-12-20T04:43:25;101461.06;;;19.05;47.64
48848;BME280;75039;51.970;5.660;2023-12-20T04:45:52;101456.47;;;19.06;47.41
48848;BME280;75039;51.970;5.660;2023-12-20T04:48:19;101456.47;;;19.06;47.56
48848;BME280;75039;51.970;5.660;2023-12-20T04:50:46;101456.47;;;19.06;47.54
48848;BME280;75039;51.970;5.660;2023-12-20T04:53:12;101452.91;;;19.05;47.40
48848;BME280;75039;51.970;5.660;2023-12-20T04:55:39;101456.47;;;19.06;47.35
48848;BME280;75039;51.970;5.660;2023-12-20T04:58:06;101457.34;;;19.07;47.70
48848;BME280;75039;51.970;5.660;2023-12-20T05:00:33;101453.75;;;19.06;47.57
48848;BME280;75039;51.970;5.660;2023-12-20T05:02:59;101462.94;;;19.05;47.47
48848;BME280;75039;51.970;5.660;2023-12-20T05:05:26;101464.78;;;19.04;47.77
48848;BME280;75039;51.970;5.660;2023-12-20T05:07:53;101462.94;;;19.05;47.41
48848;BME280;75039;51.970;5.660;2023-12-20T05:10:19;101464.66;;;19.06;47.25
48848;BME280;75039;51.970;5.660;2023-12-20T05:12:46;101457.34;;;19.07;47.34
48848;BME280;75039;51.970;5.660;2023-12-20T05:15:13;101444.88;;;19.04;47.22
48848;BME280;75039;51.970;5.660;2023-12-20T05:17:39;101442.88;;;19.06;47.58
48848;BME280;75039;51.970;5.660;2023-12-20T05:20:07;101436.56;;;19.05;47.31
48848;BME280;75039;51.970;5.660;2023-12-20T05:22:34;101442.88;;;19.06;47.44
48848;BME280;75039;51.970;5.660;2023-12-20T05:25:01;101442.72;;;19.08;47.50
48848;BME280;75039;51.970;5.660;2023-12-20T05:27:28;101438.28;;;19.07;47.42
48848;BME280;75039;51.970;5.660;2023-12-20T05:29:54;101439.59;;;19.02;47.24
48848;BME280;75039;51.970;5.660;2023-12-20T05:32:24;101435.69;;;19.05;47.26
48848;BME280;75039;51.970;5.660;2023-12-20T05:34:51;101435.69;;;19.05;47.40
48848;BME280;75039;51.970;5.660;2023-12-20T05:37:18;101431.13;;;19.05;47.18
48848;BME280;75039;51.970;5.660;2023-12-20T05:39:45;101432.97;;;19.05;47.61
48848;BME280;75039;51.970;5.660;2023-12-20T05:42:12;101432.97;;;19.05;47.64
48848;BME280;75039;51.970;5.660;2023-12-20T05:44:39;101432.97;;;19.05;47.08
48848;BME280;75039;51.970;5.660;2023-12-20T05:47:05;101432.13;;;19.04;47.54
48848;BME280;75039;51.970;5.660;2023-12-20T05:49:32;101435.69;;;19.05;47.13
48848;BME280;75039;51.970;5.660;2023-12-20T05:51:59;101435.56;;;19.07;47.14
48848;BME280;75039;51.970;5.660;2023-12-20T05:54:25;101437.41;;;19.06;47.17
48848;BME280;75039;51.970;5.660;2023-12-20T05:56:52;101441.00;;;19.07;47.27
48848;BME280;75039;51.970;5.660;2023-12-20T05:59:19;101449.16;;;19.07;47.29
48848;BME280;75039;51.970;5.660;2023-12-20T06:01:45;101442.88;;;19.06;47.20
48848;BME280;75039;51.970;5.660;2023-12-20T06:04:12;101451.88;;;19.07;47.14
48848;BME280;75039;51.970;5.660;2023-12-20T06:06:42;101463.78;;;19.05;47.48
48848;BME280;75039;51.970;5.660;2023-12-20T06:09:10;101465.50;;;19.07;47.20
48848;BME280;75039;51.970;5.660;2023-12-20T06:11:37;101465.66;;;19.05;47.04
48848;BME280;75039;51.970;5.660;2023-12-20T06:14:04;101460.34;;;19.03;46.99
48848;BME280;75039;51.970;5.660;2023-12-20T06:16:30;101464.78;;;19.04;47.45
48848;BME280;75039;51.970;5.660;2023-12-20T06:18:57;101460.34;;;19.03;47.41
48848;BME280;75039;51.970;5.660;2023-12-20T06:21:24;101458.63;;;19.02;47.29
48848;BME280;75039;51.970;5.660;2023-12-20T06:23:50;101463.78;;;19.05;47.04
48848;BME280;75039;51.970;5.660;2023-12-20T06:26:17;101459.50;;;19.03;47.25
48848;BME280;75039;51.970;5.660;2023-12-20T06:28:44;101464.78;;;19.04;47.50
48848;BME280;75039;51.970;5.660;2023-12-20T06:31:10;101454.06;;;19.03;47.35
48848;BME280;75039;51.970;5.660;2023-12-20T06:33:37;101445.75;;;19.04;47.16
48848;BME280;75039;51.970;5.660;2023-12-20T06:36:07;101443.00;;;19.04;47.37
48848;BME280;75039;51.970;5.660;2023-12-20T06:38:33;101443.00;;;19.04;47.44
48848;BME280;75039;51.970;5.660;2023-12-20T06:41:00;101442.31;;;19.02;47.04
48848;BME280;75039;51.970;5.660;2023-12-20T06:43:27;101447.59;;;19.04;47.38
48848;BME280;75039;51.970;5.660;2023-12-20T06:46:11;101448.31;;;19.06;46.98
48848;BME280;75039;51.970;5.660;2023-12-20T06:48:39;101449.47;;;19.03;47.45
48848;BME280;75039;51.970;5.660;2023-12-20T06:51:12;101444.03;;;19.03;47.11
48848;BME280;75039;51.970;5.660;2023-12-20T06:53:38;101452.91;;;19.05;47.54
48848;BME280;75039;51.970;5.660;2023-12-20T06:56:05;101446.59;;;19.05;47.45
48848;BME280;75039;51.970;5.660;2023-12-20T06:58:32;101451.19;;;19.04;47.15
48848;BME280;75039;51.970;5.660;2023-12-20T07:00:59;101445.75;;;19.04;46.97
48848;BME280;75039;51.970;5.660;2023-12-20T07:03:26;101453.91;;;19.04;47.15
48848;BME280;75039;51.970;5.660;2023-12-20T07:05:52;101434.00;;;19.04;46.99
48848;BME280;75039;51.970;5.660;2023-12-20T07:08:19;101444.88;;;19.04;47.05
48848;BME280;75039;51.970;5.660;2023-12-20T07:10:46;101438.44;;;19.05;47.06
48848;BME280;75039;51.970;5.660;2023-12-20T07:13:12;101433.13;;;19.03;47.11
48848;BME280;75039;51.970;5.660;2023-12-20T07:15:40;101441.16;;;19.05;46.95
48848;BME280;75039;51.970;5.660;2023-12-20T07:18:07;101440.44;;;19.03;47.36
48848;BME280;75039;51.970;5.660;2023-12-20T07:20:34;101437.72;;;19.03;47.43
48848;BME280;75039;51.970;5.660;2023-12-20T07:23:00;101434.00;;;19.04;47.18
48848;BME280;75039;51.970;5.660;2023-12-20T07:25:27;101439.44;;;19.04;47.31
48848;BME280;75039;51.970;5.660;2023-12-20T07:27:54;101443.00;;;19.04;47.31
48848;BME280;75039;51.970;5.660;2023-12-20T07:30:21;101440.28;;;19.04;47.05
48848;BME280;75039;51.970;5.660;2023-12-20T07:32:47;101445.75;;;19.04;47.25
48848;BME280;75039;51.970;5.660;2023-12-20T07:35:15;101454.75;;;19.05;47.11
48848;BME280;75039;51.970;5.660;2023-12-20T07:37:43;101442.00;;;19.05;47.07
48848;BME280;75039;51.970;5.660;2023-12-20T07:40:10;101442.00;;;19.05;47.21
48848;BME280;75039;51.970;5.660;2023-12-20T07:42:37;101443.00;;;19.04;46.91
48848;BME280;75039;51.970;5.660;2023-12-20T07:45:04;101443.00;;;19.04;47.32
48848;BME280;75039;51.970;5.660;2023-12-20T07:47:31;101444.72;;;19.05;47.30
48848;BME280;75039;51.970;5.660;2023-12-20T07:49:57;101445.75;;;19.04;47.00
48848;BME280;75039;51.970;5.660;2023-12-20T07:52:24;101444.88;;;19.04;47.18
48848;BME280;75039;51.970;5.660;2023-12-20T07:54:52;101442.16;;;19.04;47.11
48848;BME280;75039;51.970;5.660;2023-12-20T07:57:19;101437.72;;;19.03;47.39
48848;BME280;75039;51.970;5.660;2023-12-20T07:59:45;101434.84;;;19.04;47.16
48848;BME280;75039;51.970;5.660;2023-12-20T08:02:12;101433.84;;;19.05;47.05
48848;BME280;75039;51.970;5.660;2023-12-20T08:04:39;101441.16;;;19.05;47.15
48848;BME280;75039;51.970;5.660;2023-12-20T08:07:05;101443.00;;;19.04;46.91
48848;BME280;75039;51.970;5.660;2023-12-20T08:09:32;101444.03;;;19.03;47.30
48848;BME280;75039;51.970;5.660;2023-12-20T08:12:00;101457.63;;;19.03;47.15
48848;BME280;75039;51.970;5.660;2023-12-20T08:14:27;101451.19;;;19.04;47.04
48848;BME280;75039;51.970;5.660;2023-12-20T08:16:53;101458.50;;;19.04;47.15
48848;BME280;75039;51.970;5.660;2023-12-20T08:19:20;101463.78;;;19.05;47.03
48848;BME280;75039;51.970;5.660;2023-12-20T08:21:47;101465.66;;;19.05;47.25
48848;BME280;75039;51.970;5.660;2023-12-20T08:24:14;101469.22;;;19.05;47.07
48848;BME280;75039;51.970;5.660;2023-12-20T08:26:40;101462.06;;;19.04;46.87
48848;BME280;75039;51.970;5.660;2023-12-20T08:29:07;101472.09;;;19.04;46.87
48848;BME280;75039;51.970;5.660;2023-12-20T08:31:34;101467.50;;;19.04;47.13
48848;BME280;75039;51.970;5.660;2023-12-20T08:34:01;101471.09;;;19.05;47.11
48848;BME280;75039;51.970;5.660;2023-12-20T08:36:29;101472.09;;;19.04;46.77
48848;BME280;75039;51.970;5.660;2023-12-20T08:38:55;101473.81;;;19.05;47.24
48848;BME280;75039;51.970;5.660;2023-12-20T08:41:22;101470.09;;;19.06;47.12
48848;BME280;75039;51.970;5.660;2023-12-20T08:43:48;101463.78;;;19.05;46.72
48848;BME280;75039;51.970;5.660;2023-12-20T08:46:15;101462.06;;;19.04;47.18
48848;BME280;75039;51.970;5.660;2023-12-20T08:48:42;101459.34;;;19.04;47.02
48848;BME280;75039;51.970;5.660;2023-12-20T08:51:10;101441.16;;;19.05;47.17
48848;BME280;75039;51.970;5.660;2023-12-20T08:53:37;101441.16;;;19.05;46.78
48848;BME280;75039;51.970;5.660;2023-12-20T08:56:04;101437.56;;;19.04;46.92
48848;BME280;75039;51.970;5.660;2023-12-20T08:58:30;101438.56;;;19.03;46.84
48848;BME280;75039;51.970;5.660;2023-12-20T09:00:57;101434.00;;;19.04;46.82
48848;BME280;75039;51.970;5.660;2023-12-20T09:03:24;101431.13;;;19.05;46.97
48848;BME280;75039;51.970;5.660;2023-12-20T09:05:51;101425.81;;;19.04;47.00
48848;BME280;75039;51.970;5.660;2023-12-20T09:08:18;101421.22;;;19.04;46.76
48848;BME280;75039;51.970;5.660;2023-12-20T09:10:44;101433.13;;;19.03;46.98
48848;BME280;75039;51.970;5.660;2023-12-20T09:13:11;101430.41;;;19.03;46.72
48848;BME280;75039;51.970;5.660;2023-12-20T09:15:38;101435.00;;;19.03;47.10
48848;BME280;75039;51.970;5.660;2023-12-20T09:18:05;101432.28;;;19.03;46.84
48848;BME280;75039;51.970;5.660;2023-12-20T09:20:33;101436.56;;;19.05;46.73
48848;BME280;75039;51.970;5.660;2023-12-20T09:23:00;101443.00;;;19.04;46.63
48848;BME280;75039;51.970;5.660;2023-12-20T09:25:27;101444.88;;;19.04;46.73
48848;BME280;75039;51.970;5.660;2023-12-20T09:27:55;101442.31;;;19.02;46.66
48848;BME280;75039;51.970;5.660;2023-12-20T09:30:22;101450.31;;;19.04;46.80
48848;BME280;75039;51.970;5.660;2023-12-20T09:32:54;101433.13;;;19.03;47.05
48848;BME280;75039;51.970;5.660;2023-12-20T09:35:21;101427.69;;;19.03;47.00
48848;BME280;75039;51.970;5.660;2023-12-20T09:37:49;101431.41;;;19.02;46.97
48848;BME280;75039;51.970;5.660;2023-12-20T09:40:18;101423.09;;;19.04;46.65
48848;BME280;75039;51.970;5.660;2023-12-20T09:42:56;101428.53;;;19.04;46.90
48848;BME280;75039;51.970;5.660;2023-12-20T09:45:23;101426.69;;;19.04;46.52
48848;BME280;75039;51.970;5.660;2023-12-20T09:47:52;101424.09;;;19.03;47.00
48848;BME280;75039;51.970;5.660;2023-12-20T09:50:22;101433.13;;;19.03;46.70
48848;BME280;75039;51.970;5.660;2023-12-20T09:52:51;101434.00;;;19.04;46.72
48848;BME280;75039;51.970;5.660;2023-12-20T09:55:19;101438.44;;;19.05;46.60
48848;BME280;75039;51.970;5.660;2023-12-20T09:57:47;101429.25;;;19.06;46.67
48848;BME280;75039;51.970;5.660;2023-12-20T10:00:15;101446.59;;;19.05;47.02
48848;BME280;75039;51.970;5.660;2023-12-20T10:02:47;101428.53;;;19.04;46.57
48848;BME280;75039;51.970;5.660;2023-12-20T10:05:17;101434.84;;;19.04;46.82
48848;BME280;75039;51.970;5.660;2023-12-20T10:07:47;101433.84;;;19.05;46.92
48848;BME280;75039;51.970;5.660;2023-12-20T10:10:15;101439.28;;;19.05;46.83
48848;BME280;75039;51.970;5.660;2023-12-20T10:13:02;101423.97;;;19.04;46.68
48848;BME280;75039;51.970;5.660;2023-12-20T10:15:29;101419.38;;;19.05;46.67
48848;BME280;75039;51.970;5.660;2023-12-20T10:17:57;101436.56;;;19.05;46.92
48848;BME280;75039;51.970;5.660;2023-12-20T10:20:28;101428.41;;;19.05;46.50
48848;BME280;75039;51.970;5.660;2023-12-20T10:22:59;101425.81;;;19.04;46.98
48848;BME280;75039;51.970;5.660;2023-12-20T10:25:26;101435.69;;;19.05;46.69
48848;BME280;75039;51.970;5.660;2023-12-20T10:28:22;101432.13;;;19.04;46.50
48848;BME280;75039;51.970;5.660;2023-12-20T10:30:54;101432.13;;;19.04;46.76
48848;BME280;75039;51.970;5.660;2023-12-20T10:33:27;101432.97;;;19.05;46.70
48848;BME280;75039;51.970;5.660;2023-12-20T10:36:01;101436.56;;;19.05;46.47
48848;BME280;75039;51.970;5.660;2023-12-20T10:38:29;101428.53;;;19.04;46.45
48848;BME280;75039;51.970;5.660;2023-12-20T10:40:57;101423.97;;;19.04;46.77
48848;BME280;75039;51.970;5.660;2023-12-20T10:43:28;101425.66;;;19.05;46.89
48848;BME280;75039;51.970;5.660;2023-12-20T10:45:56;101417.50;;;19.05;46.86
48848;BME280;75039;51.970;5.660;2023-12-20T10:48:23;101405.75;;;19.05;46.59
48848;BME280;75039;51.970;5.660;2023-12-20T10:50:56;101409.34;;;19.05;46.72
48848;BME280;75039;51.970;5.660;2023-12-20T10:53:24;101411.19;;;19.05;46.52
48848;BME280;75039;51.970;5.660;2023-12-20T10:55:52;101404.75;;;19.06;46.44
48848;BME280;75039;51.970;5.660;2023-12-20T10:58:22;101408.34;;;19.07;46.63
48848;BME280;75039;51.970;5.660;2023-12-20T11:00:56;101410.34;;;19.04;46.40
48848;BME280;75039;51.970;5.660;2023-12-20T11:03:27;101404.75;;;19.06;46.33
48848;BME280;75039;51.970;5.660;2023-12-20T11:06:01;101399.31;;;19.06;46.64
48848;BME280;75039;51.970;5.660;2023-12-20T11:08:46;101393.00;;;19.05;46.75
48848;BME280;75039;51.970;5.660;2023-12-20T11:11:20;101387.56;;;19.05;46.79
48848;BME280;75039;51.970;5.660;2023-12-20T11:13:55;101385.69;;;19.06;46.56
48848;BME280;75039;51.970;5.660;2023-12-20T11:16:23;101381.97;;;19.07;46.57
48848;BME280;75039;51.970;5.660;2023-12-20T11:18:55;101379.41;;;19.05;46.71
48848;BME280;75039;51.970;5.660;2023-12-20T11:21:22;101377.38;;;19.08;46.45
48848;BME280;75039;51.970;5.660;2023-12-20T11:23:48;101381.81;;;19.09;46.51
48848;BME280;75039;51.970;5.660;2023-12-20T11:26:16;101382.81;;;19.08;46.55
48848;BME280;75039;51.970;5.660;2023-12-20T11:28:43;101388.25;;;19.08;46.38
48848;BME280;75039;51.970;5.660;2023-12-20T11:31:13;101383.53;;;19.10;46.47
48848;BME280;75039;51.970;5.660;2023-12-20T11:33:40;101380.97;;;19.08;46.38
48848;BME280;75039;51.970;5.660;2023-12-20T11:36:18;101381.97;;;19.07;46.69
48848;BME280;75039;51.970;5.660;2023-12-20T11:38:58;101376.38;;;19.09;46.52
48848;BME280;75039;51.970;5.660;2023-12-20T11:41:27;101380.09;;;19.08;46.38
48848;BME280;75039;51.970;5.660;2023-12-20T11:43:55;101376.53;;;19.07;46.37
48848;BME280;75039;51.970;5.660;2023-12-20T11:46:22;101380.97;;;19.08;46.38
48848;BME280;75039;51.970;5.660;2023-12-20T11:48:50;101379.25;;;19.07;46.42
48848;BME280;75039;51.970;5.660;2023-12-20T11:51:17;101377.38;;;19.08;46.75
48848;BME280;75039;51.970;5.660;2023-12-20T11:53:43;101367.34;;;19.08;46.68
48848;BME280;75039;51.970;5.660;2023-12-20T11:56:10;101366.50;;;19.08;46.37
48848;BME280;75039;51.970;5.660;2023-12-20T11:58:37;101363.91;;;19.06;46.72
48848;BME280;75039;51.970;5.660;2023-12-20T12:01:05;101359.31;;;19.07;46.65
48848;BME280;75039;51.970;5.660;2023-12-20T12:03:34;101360.19;;;19.07;46.55
48848;BME280;75039;51.970;5.660;2023-12-20T12:06:02;101355.59;;;19.08;46.55
48848;BME280;75039;51.970;5.660;2023-12-20T12:08:31;101352.03;;;19.07;46.47
48848;BME280;75039;51.970;5.660;2023-12-20T12:10:58;101352.88;;;19.08;46.49
48848;BME280;75039;51.970;5.660;2023-12-20T12:13:24;101351.16;;;19.07;46.36
48848;BME280;75039;51.970;5.660;2023-12-20T12:15:54;101353.72;;;19.08;46.64
48848;BME280;75039;51.970;5.660;2023-12-20T12:18:21;101343.00;;;19.07;46.56
48848;BME280;75039;51.970;5.660;2023-12-20T12:20:47;101331.09;;;19.08;46.35
48848;BME280;75039;51.970;5.660;2023-12-20T12:23:14;101337.25;;;19.10;46.69
48848;BME280;75039;51.970;5.660;2023-12-20T12:25:49;101333.81;;;19.08;46.36
48848;BME280;75039;51.970;5.660;2023-12-20T12:28:15;101338.25;;;19.09;46.35
48848;BME280;75039;51.970;5.660;2023-12-20T12:30:43;101330.09;;;19.09;46.26
48848;BME280;75039;51.970;5.660;2023-12-20T12:33:19;101326.34;;;19.10;46.76
48848;BME280;75039;51.970;5.660;2023-12-20T12:35:46;101326.34;;;19.10;46.57
48848;BME280;75039;51.970;5.660;2023-12-20T12:38:14;101324.50;;;19.10;46.56
48848;BME280;75039;51.970;5.660;2023-12-20T12:40:43;101327.06;;;19.12;46.52
48848;BME280;75039;51.970;5.660;2023-12-20T12:43:10;101328.22;;;19.09;46.40
48848;BME280;75039;51.970;5.660;2023-12-20T12:45:36;101338.09;;;19.10;46.51
48848;BME280;75039;51.970;5.660;2023-12-20T12:48:03;101327.38;;;19.09;46.74
48848;BME280;75039;51.970;5.660;2023-12-20T12:50:30;101317.34;;;19.09;46.55
48848;BME280;75039;51.970;5.660;2023-12-20T12:52:57;101316.31;;;19.10;46.79